Bei Facebook empfehlenBei Twitter postenGoogle plusPinterest

Das Wetter im Erzgebirge am 02.06.2016

Wetter und Klima am 02.06.2016 Holzhau im Erzgebirge (630m ü.NN)
Letzte gemessene Temperatur und Uhrzeit der Messung23:45:00 Uhr12.40 °C
Temperatur (Maximum / Höchstwert) und Uhrzeit der Messung15:15:00 Uhr20.80 °C
Temperatur (Minimum / Tiefstwert) und Uhrzeit der Messung03:15:009.40 °C
Errechneter Absolutwert der Temperaturschwankungen zwischen Tmin und Tmax des Tages11.40 K
Errechnete Tagesmitteltemperatur14.41979 °C
Gesamt - Niederschlag des Tages (in flüssiger Form)6.22 Liter / m²
Luftdruck (Maximum / Höchstwert) und Zeitpunkt der Messung23:45:00 Uhr1008.90 hPa
Luftdruck (Minimum / Tiefstwert) und Zeitpunkt der Messung06:00:00 Uhr1007.60 hPa
Errechneter Absolutwert der Luftdruckschwankungen des Tages1.30 hPa
Höchste gemessene Windgeschwindigkeit und Uhrzeit der Messung23:45:00 Uhr0.00 km/h
Errechnete Windhäufigkeit in Relation zu den Messwerten des Tages0.00000 %
Niedrigste Windkühle (Windchill) und Zeitpunkt der Messung03:15:00 Uhr9.40 °C
Taupunkt (Maximum / Höchstwert) und Uhrzeit der Messung11:15:00 Uhr17.40 °C
Taupunkt (Minimum / Tiefstwert) und Uhrzeit der Messung03:15:008.50 °C
Anzahl der automatisch eingelesenen Messwerte 96

Detaillierte Wetter- und Klima- Messwerte für den 02.06.2016 in Holzhau im Erzgebirge (630m ü.NN)
ZeitTemperaturLuftdruckRel. LuftfeuchteWindWindrichtungWindchillTaupunktNiederschlag l/m²
23:45:0012.40 °C1008.90 hPa91.00 %11.00 °C6.22
23:30:0012.40 °C1008.80 hPa91.00 %11.00 °C6.22
23:15:0012.40 °C1008.80 hPa90.00 %10.80 °C6.22
23:00:0012.40 °C1008.80 hPa90.00 %10.80 °C6.22
22:45:0012.30 °C1008.80 hPa89.00 %10.50 °C6.22
22:30:0012.40 °C1008.90 hPa88.00 %10.50 °C6.22
22:15:0012.50 °C1008.90 hPa88.00 %10.60 °C6.22
22:00:0012.80 °C1008.90 hPa87.00 %10.70 °C6.22
21:45:0013.00 °C1008.90 hPa86.00 %10.70 °C6.22
21:30:0013.50 °C1008.90 hPa86.00 %11.20 °C6.22
21:15:0013.90 °C1008.90 hPa85.00 %11.40 °C6.22
21:00:0014.60 °C1008.60 hPa84.00 %11.90 °C6.22
20:45:0014.90 °C1008.60 hPa83.00 %12.00 °C6.22
20:30:0015.80 °C1008.20 hPa81.00 %12.50 °C6.22
20:15:0016.50 °C1008.20 hPa80.00 %13.00 °C6.22
20:00:0017.20 °C1008.00 hPa78.00 %13.30 °C6.22
19:45:0017.60 °C1008.10 hPa76.00 %13.30 °C6.22
19:30:0017.90 °C1008.00 hPa76.00 %13.60 °C6.22
19:15:0018.10 °C1008.00 hPa76.00 %13.80 °C6.22
19:00:0018.20 °C1007.90 hPa75.00 %13.70 °C6.22
18:45:0018.90 °C1007.90 hPa72.00 %13.70 °C6.22
18:30:0019.60 °C1007.90 hPa73.00 %14.60 °C6.22
18:15:0019.00 °C1008.10 hPa75.00 %14.50 °C6.22
18:00:0018.90 °C1008.20 hPa75.00 %14.40 °C6.22
17:45:0018.70 °C1008.00 hPa74.00 %14.00 °C6.22
17:30:0019.20 °C1008.10 hPa74.00 %14.50 °C6.22
17:15:0018.30 °C1008.10 hPa75.00 %13.80 °C6.22
17:00:0018.40 °C1008.00 hPa72.00 %13.30 °C6.22
16:45:0019.40 °C1007.90 hPa72.00 %14.20 °C6.22
16:30:0019.90 °C1007.80 hPa73.00 %14.90 °C6.22
16:15:0019.30 °C1007.70 hPa72.00 %14.10 °C6.22
16:00:0019.90 °C1007.90 hPa71.00 %14.50 °C6.22
15:45:0020.10 °C1007.90 hPa70.00 %14.50 °C6.22
15:30:0020.40 °C1008.10 hPa72.00 %15.20 °C6.22
15:15:0020.80 °C1008.10 hPa73.00 %15.80 °C6.22
15:00:0019.90 °C1008.00 hPa75.00 %15.30 °C6.22
14:45:0019.50 °C1008.10 hPa75.00 %15.00 °C6.22
14:30:0019.40 °C1008.20 hPa75.00 %14.90 °C6.22
14:15:0019.70 °C1008.20 hPa76.00 %15.40 °C6.22
14:00:0019.90 °C1008.20 hPa78.00 %16.00 °C6.22
13:45:0019.40 °C1008.30 hPa81.00 %16.10 °C6.22
13:30:0018.70 °C1008.40 hPa82.00 %15.60 °C6.22
13:15:0018.60 °C1008.30 hPa79.00 %14.90 °C6.22
13:00:0019.10 °C1008.30 hPa78.00 %15.20 °C6.22
12:45:0019.60 °C1008.10 hPa78.00 %15.70 °C6.22
12:30:0019.80 °C1008.00 hPa82.00 %16.60 °C6.22
12:15:0019.30 °C1008.10 hPa87.00 %17.10 °C6.22
12:00:0018.80 °C1008.00 hPa89.00 %16.90 °C6.22
11:45:0018.40 °C1008.00 hPa92.00 %17.10 °C6.22
11:30:0018.10 °C1008.00 hPa94.00 %17.10 °C6.22
11:15:0018.00 °C1008.10 hPa96.00 %17.40 °C6.22
11:00:0016.80 °C1008.10 hPa96.00 %16.20 °C6.22
10:45:0015.60 °C1007.90 hPa97.00 %15.10 °C6.22
10:30:0014.20 °C1008.10 hPa96.00 %13.60 °C6.22
10:15:0013.30 °C1008.10 hPa96.00 %12.70 °C6.22
10:00:0012.50 °C1008.30 hPa96.00 %11.90 °C5.70
09:45:0012.40 °C1008.30 hPa96.00 %11.80 °C5.70
09:30:0012.30 °C1008.30 hPa96.00 %11.70 °C5.70
09:15:0012.20 °C1008.10 hPa96.00 %11.60 °C5.70
09:00:0012.10 °C1008.40 hPa96.00 %11.50 °C5.18
08:45:0011.80 °C1008.30 hPa96.00 %11.20 °C4.67
08:30:0011.50 °C1008.40 hPa96.00 %10.90 °C4.67
08:15:0011.30 °C1008.20 hPa96.00 %10.70 °C4.67
08:00:0011.10 °C1008.50 hPa95.00 %10.30 °C4.15
07:45:0011.00 °C1008.50 hPa95.00 %10.20 °C3.63
07:30:0011.00 °C1008.40 hPa95.00 %10.20 °C3.11
07:15:0011.10 °C1008.20 hPa95.00 %10.30 °C2.08
07:00:0011.20 °C1008.00 hPa95.00 %10.40 °C1.56
06:45:0010.80 °C1008.10 hPa95.00 %10.00 °C0.52
06:30:0010.60 °C1008.10 hPa95.00 %9.80 °C 
06:15:0010.40 °C1007.80 hPa95.00 %9.60 °C 
06:00:0010.30 °C1007.60 hPa95.00 %9.50 °C 
05:45:0010.20 °C1007.70 hPa95.00 %9.40 °C 
05:30:0010.10 °C1007.70 hPa95.00 %9.30 °C 
05:15:0010.00 °C1007.70 hPa95.00 %9.20 °C 
05:00:009.90 °C1007.70 hPa94.00 %9.00 °C 
04:45:009.90 °C1007.60 hPa94.00 %9.00 °C 
04:30:009.80 °C1007.70 hPa94.00 %8.90 °C 
04:15:009.80 °C1007.70 hPa94.00 %8.90 °C 
04:00:009.60 °C1007.60 hPa94.00 %8.70 °C 
03:45:009.60 °C1007.60 hPa94.00 %8.70 °C 
03:30:009.50 °C1007.60 hPa94.00 %8.60 °C 
03:15:009.40 °C1007.70 hPa94.00 %8.50 °C 
03:00:009.50 °C1007.90 hPa94.00 %8.60 °C 
02:45:009.60 °C1007.90 hPa94.00 %8.70 °C 
02:30:009.90 °C1008.00 hPa94.00 %9.00 °C 
02:15:009.90 °C1008.10 hPa93.00 %8.80 °C 
02:00:0010.00 °C1008.00 hPa93.00 %8.90 °C 
01:45:0010.20 °C1008.10 hPa93.00 %9.10 °C 
01:30:0010.40 °C1008.40 hPa93.00 %9.30 °C 
01:15:0010.70 °C1008.40 hPa93.00 %9.60 °C 
01:00:0010.80 °C1008.30 hPa93.00 %9.70 °C 
00:45:0010.90 °C1008.50 hPa93.00 %9.80 °C 
00:30:0010.90 °C1008.60 hPa93.00 %9.80 °C 
00:15:0011.10 °C1008.70 hPa92.00 %9.90 °C 
00:00:0011.30 °C1008.60 hPa92.00 %10.00 °C 

Permanenter Link zu dieser Seite: Wetter im Erzgebirge am 02.06.2016
Performance-Info: Die Erstellung der Seite / Statistik(en) / Tabelle(n) erforderte 5 Datenbankserver-Abfrage(n) und dauerte 108 Millisekunden. (Dieser Messwert ist von der Gesamt-Auslastung des Servers abhängig.)
Erzgebirge - Wetter | Erzgebirge - Wetter (Mobilgeräte) | Komplette Klimadatenbank